sensor_id;sensor_type;location;lat;lon;timestamp;pressure;altitude;pressure_sealevel;temperature;humidity
16690;BME280;8458;52.220;9.884;2023-01-15T00:01:31;98809.09;;;9.86;100.00
16690;BME280;8458;52.220;9.884;2023-01-15T00:04:01;98810.25;;;9.85;100.00
16690;BME280;8458;52.220;9.884;2023-01-15T00:06:28;98812.41;;;9.89;100.00
16690;BME280;8458;52.220;9.884;2023-01-15T00:08:55;98824.88;;;9.72;100.00
16690;BME280;8458;52.220;9.884;2023-01-15T00:11:22;98836.03;;;9.67;100.00
16690;BME280;8458;52.220;9.884;2023-01-15T00:13:49;98835.91;;;9.58;100.00
16690;BME280;8458;52.220;9.884;2023-01-15T00:16:18;98833.44;;;9.57;100.00
16690;BME280;8458;52.220;9.884;2023-01-15T00:18:48;98835.09;;;9.58;100.00
16690;BME280;8458;52.220;9.884;2023-01-15T00:21:17;98827.47;;;9.49;100.00
16690;BME280;8458;52.220;9.884;2023-01-15T00:23:45;98854.47;;;9.39;100.00
16690;BME280;8458;52.220;9.884;2023-01-15T00:26:30;98861.91;;;9.05;100.00
16690;BME280;8458;52.220;9.884;2023-01-15T00:29:15;98855.31;;;8.63;100.00
16690;BME280;8458;52.220;9.884;2023-01-15T00:31:43;98860.00;;;8.38;100.00
16690;BME280;8458;52.220;9.884;2023-01-15T00:34:15;98874.09;;;8.13;100.00
16690;BME280;8458;52.220;9.884;2023-01-15T00:36:43;98871.97;;;8.04;100.00
16690;BME280;8458;52.220;9.884;2023-01-15T00:39:09;98882.75;;;7.77;100.00
16690;BME280;8458;52.220;9.884;2023-01-15T00:41:36;98897.16;;;7.68;100.00
16690;BME280;8458;52.220;9.884;2023-01-15T00:44:02;98905.59;;;7.48;100.00
16690;BME280;8458;52.220;9.884;2023-01-15T00:46:29;98895.75;;;7.36;100.00
16690;BME280;8458;52.220;9.884;2023-01-15T00:48:55;98907.94;;;7.30;100.00
16690;BME280;8458;52.220;9.884;2023-01-15T00:51:22;98909.13;;;7.14;100.00
16690;BME280;8458;52.220;9.884;2023-01-15T00:53:50;98926.31;;;7.00;100.00
16690;BME280;8458;52.220;9.884;2023-01-15T00:56:16;98921.94;;;6.94;100.00
16690;BME280;8458;52.220;9.884;2023-01-15T00:58:43;98931.34;;;6.83;100.00
16690;BME280;8458;52.220;9.884;2023-01-15T01:01:10;98935.25;;;6.72;100.00
16690;BME280;8458;52.220;9.884;2023-01-15T01:03:36;98951.81;;;6.67;100.00
16690;BME280;8458;52.220;9.884;2023-01-15T01:06:03;98963.94;;;6.60;100.00
16690;BME280;8458;52.220;9.884;2023-01-15T01:08:30;98962.25;;;6.64;100.00
16690;BME280;8458;52.220;9.884;2023-01-15T01:11:03;98965.28;;;6.63;100.00
16690;BME280;8458;52.220;9.884;2023-01-15T01:13:30;98968.91;;;6.63;100.00
16690;BME280;8458;52.220;9.884;2023-01-15T01:15:56;98970.56;;;6.59;100.00
16690;BME280;8458;52.220;9.884;2023-01-15T01:18:22;98993.44;;;6.50;100.00
16690;BME280;8458;52.220;9.884;2023-01-15T01:20:49;98991.53;;;6.45;100.00
16690;BME280;8458;52.220;9.884;2023-01-15T01:23:16;98986.56;;;6.47;100.00
16690;BME280;8458;52.220;9.884;2023-01-15T01:25:42;99005.81;;;6.47;100.00
16690;BME280;8458;52.220;9.884;2023-01-15T01:28:10;99013.56;;;6.40;100.00
16690;BME280;8458;52.220;9.884;2023-01-15T01:30:37;99010.53;;;6.41;100.00
16690;BME280;8458;52.220;9.884;2023-01-15T01:33:03;99016.31;;;6.45;100.00
16690;BME280;8458;52.220;9.884;2023-01-15T01:35:30;99017.41;;;6.39;100.00
16690;BME280;8458;52.220;9.884;2023-01-15T01:37:57;99037.25;;;6.25;100.00
16690;BME280;8458;52.220;9.884;2023-01-15T01:40:23;99043.84;;;6.14;100.00
16690;BME280;8458;52.220;9.884;2023-01-15T01:42:49;99047.44;;;6.09;100.00
16690;BME280;8458;52.220;9.884;2023-01-15T01:45:21;99043.31;;;5.97;100.00
16690;BME280;8458;52.220;9.884;2023-01-15T01:47:49;99049.88;;;5.96;100.00
16690;BME280;8458;52.220;9.884;2023-01-15T01:50:17;99071.31;;;5.88;100.00
16690;BME280;8458;52.220;9.884;2023-01-15T01:52:45;99054.53;;;5.80;100.00
16690;BME280;8458;52.220;9.884;2023-01-15T01:55:16;99054.78;;;5.68;100.00
16690;BME280;8458;52.220;9.884;2023-01-15T01:57:43;99048.19;;;5.69;100.00
16690;BME280;8458;52.220;9.884;2023-01-15T02:00:11;99049.28;;;5.68;100.00
16690;BME280;8458;52.220;9.884;2023-01-15T02:02:42;99039.38;;;5.62;100.00
16690;BME280;8458;52.220;9.884;2023-01-15T02:05:12;99050.66;;;5.60;100.00
16690;BME280;8458;52.220;9.884;2023-01-15T02:07:40;99049.78;;;5.54;100.00
16690;BME280;8458;52.220;9.884;2023-01-15T02:10:12;99053.94;;;5.52;100.00
16690;BME280;8458;52.220;9.884;2023-01-15T02:12:40;99058.59;;;5.46;100.00
16690;BME280;8458;52.220;9.884;2023-01-15T02:15:12;99058.59;;;5.46;100.00
16690;BME280;8458;52.220;9.884;2023-01-15T02:17:45;99063.53;;;5.44;100.00
16690;BME280;8458;52.220;9.884;2023-01-15T02:20:22;99063.50;;;5.39;100.00
16690;BME280;8458;52.220;9.884;2023-01-15T02:23:19;99074.50;;;5.39;100.00
16690;BME280;8458;52.220;9.884;2023-01-15T02:28:53;99100.56;;;5.31;100.00
16690;BME280;8458;52.220;9.884;2023-01-15T02:31:25;99084.34;;;5.19;100.00
16690;BME280;8458;52.220;9.884;2023-01-15T02:33:55;99088.22;;;5.24;100.00
16690;BME280;8458;52.220;9.884;2023-01-15T02:36:25;99073.88;;;5.21;100.00
16690;BME280;8458;52.220;9.884;2023-01-15T02:38:55;99085.47;;;5.29;100.00
16690;BME280;8458;52.220;9.884;2023-01-15T02:41:27;99084.91;;;5.27;100.00
16690;BME280;8458;52.220;9.884;2023-01-15T02:44:00;99081.06;;;5.33;100.00
16690;BME280;8458;52.220;9.884;2023-01-15T02:46:32;99067.38;;;5.38;100.00
16690;BME280;8458;52.220;9.884;2023-01-15T02:49:02;99064.56;;;5.33;100.00
16690;BME280;8458;52.220;9.884;2023-01-15T02:51:33;99071.19;;;5.37;100.00
16690;BME280;8458;52.220;9.884;2023-01-15T02:54:05;99069.25;;;5.22;100.00
16690;BME280;8458;52.220;9.884;2023-01-15T02:56:35;99032.41;;;5.28;100.00
16690;BME280;8458;52.220;9.884;2023-01-15T02:59:06;99034.88;;;5.30;100.00
16690;BME280;8458;52.220;9.884;2023-01-15T03:01:40;99046.72;;;5.35;100.00
16690;BME280;8458;52.220;9.884;2023-01-15T03:04:12;99042.03;;;5.26;100.00
16690;BME280;8458;52.220;9.884;2023-01-15T03:06:44;99041.22;;;5.35;100.00
16690;BME280;8458;52.220;9.884;2023-01-15T03:09:12;99025.88;;;5.39;100.00
16690;BME280;8458;52.220;9.884;2023-01-15T03:11:43;99022.53;;;5.37;100.00
16690;BME280;8458;52.220;9.884;2023-01-15T03:14:17;99021.19;;;5.35;100.00
16690;BME280;8458;52.220;9.884;2023-01-15T03:16:46;99021.19;;;5.40;100.00
16690;BME280;8458;52.220;9.884;2023-01-15T03:19:21;99025.59;;;5.41;100.00
16690;BME280;8458;52.220;9.884;2023-01-15T03:21:52;99020.63;;;5.43;100.00
16690;BME280;8458;52.220;9.884;2023-01-15T03:24:24;99026.69;;;5.40;100.00
16690;BME280;8458;52.220;9.884;2023-01-15T03:26:53;99022.56;;;5.48;100.00
16690;BME280;8458;52.220;9.884;2023-01-15T03:29:22;99014.59;;;5.46;100.00
16690;BME280;8458;52.220;9.884;2023-01-15T03:31:50;99004.69;;;5.45;100.00
16690;BME280;8458;52.220;9.884;2023-01-15T03:34:17;99008.28;;;5.46;100.00
16690;BME280;8458;52.220;9.884;2023-01-15T03:36:43;99010.22;;;5.50;100.00
16690;BME280;8458;52.220;9.884;2023-01-15T03:39:10;99010.50;;;5.54;100.00
16690;BME280;8458;52.220;9.884;2023-01-15T03:41:44;99005.53;;;5.51;100.00
16690;BME280;8458;52.220;9.884;2023-01-15T03:44:23;99008.56;;;5.49;100.00
16690;BME280;8458;52.220;9.884;2023-01-15T03:46:59;99022.84;;;5.46;100.00
16690;BME280;8458;52.220;9.884;2023-01-15T03:49:46;99014.06;;;5.49;100.00
16690;BME280;8458;52.220;9.884;2023-01-15T03:52:21;99006.34;;;5.46;100.00
16690;BME280;8458;52.220;9.884;2023-01-15T03:54:55;98986.00;;;5.42;100.00
16690;BME280;8458;52.220;9.884;2023-01-15T03:57:29;98992.59;;;5.46;100.00
16690;BME280;8458;52.220;9.884;2023-01-15T04:00:03;98984.34;;;5.51;100.00
16690;BME280;8458;52.220;9.884;2023-01-15T04:02:33;98980.53;;;5.52;100.00
16690;BME280;8458;52.220;9.884;2023-01-15T04:05:02;98983.00;;;5.59;100.00
16690;BME280;8458;52.220;9.884;2023-01-15T04:07:29;98971.19;;;5.59;99.48
16690;BME280;8458;52.220;9.884;2023-01-15T04:09:56;98972.28;;;5.52;99.11
16690;BME280;8458;52.220;9.884;2023-01-15T04:12:23;98971.44;;;5.57;98.47
16690;BME280;8458;52.220;9.884;2023-01-15T04:14:52;98974.19;;;5.57;97.96
16690;BME280;8458;52.220;9.884;2023-01-15T04:17:20;98952.75;;;5.59;97.60
16690;BME280;8458;52.220;9.884;2023-01-15T04:19:46;98953.31;;;5.61;97.01
16690;BME280;8458;52.220;9.884;2023-01-15T04:22:12;98956.34;;;5.65;96.28
16690;BME280;8458;52.220;9.884;2023-01-15T04:24:39;98955.78;;;5.68;95.81
16690;BME280;8458;52.220;9.884;2023-01-15T04:27:05;98955.25;;;5.71;94.76
16690;BME280;8458;52.220;9.884;2023-01-15T04:29:32;98954.69;;;5.74;94.21
16690;BME280;8458;52.220;9.884;2023-01-15T04:31:58;98964.31;;;5.77;94.19
16690;BME280;8458;52.220;9.884;2023-01-15T04:34:27;98963.78;;;5.80;93.57
16690;BME280;8458;52.220;9.884;2023-01-15T04:36:53;98955.78;;;5.83;93.61
16690;BME280;8458;52.220;9.884;2023-01-15T04:39:20;98940.94;;;5.84;93.04
16690;BME280;8458;52.220;9.884;2023-01-15T04:41:47;98939.56;;;5.82;93.14
16690;BME280;8458;52.220;9.884;2023-01-15T04:44:32;98938.19;;;5.84;93.36
16690;BME280;8458;52.220;9.884;2023-01-15T04:46:59;98915.09;;;5.90;92.89
16690;BME280;8458;52.220;9.884;2023-01-15T04:49:27;98938.72;;;5.91;91.85
16690;BME280;8458;52.220;9.884;2023-01-15T04:51:53;98952.47;;;5.91;91.33
16690;BME280;8458;52.220;9.884;2023-01-15T04:54:20;98942.59;;;5.90;91.79
16690;BME280;8458;52.220;9.884;2023-01-15T04:56:49;98950.59;;;5.97;91.36
16690;BME280;8458;52.220;9.884;2023-01-15T04:59:17;98962.97;;;6.00;90.78
16690;BME280;8458;52.220;9.884;2023-01-15T05:01:44;98951.13;;;5.99;90.54
16690;BME280;8458;52.220;9.884;2023-01-15T05:04:11;98954.66;;;5.95;91.03
16690;BME280;8458;52.220;9.884;2023-01-15T05:06:38;98961.84;;;5.96;90.57
16690;BME280;8458;52.220;9.884;2023-01-15T05:09:05;98945.31;;;5.96;90.67
16690;BME280;8458;52.220;9.884;2023-01-15T05:11:34;98957.47;;;6.00;90.74
16690;BME280;8458;52.220;9.884;2023-01-15T05:14:01;98961.03;;;6.00;90.55
16690;BME280;8458;52.220;9.884;2023-01-15T05:16:28;98963.53;;;5.97;90.20
16690;BME280;8458;52.220;9.884;2023-01-15T05:18:57;98967.06;;;6.02;90.46
16690;BME280;8458;52.220;9.884;2023-01-15T05:21:25;98966.81;;;6.04;90.70
16690;BME280;8458;52.220;9.884;2023-01-15T05:23:54;98953.03;;;6.04;90.51
16690;BME280;8458;52.220;9.884;2023-01-15T05:26:22;98958.53;;;6.04;89.42
16690;BME280;8458;52.220;9.884;2023-01-15T05:28:52;98963.50;;;6.02;89.45
16690;BME280;8458;52.220;9.884;2023-01-15T05:31:19;98970.69;;;6.03;89.80
16690;BME280;8458;52.220;9.884;2023-01-15T05:33:47;98967.63;;;6.09;89.58
16690;BME280;8458;52.220;9.884;2023-01-15T05:36:15;98963.22;;;6.03;89.55
16690;BME280;8458;52.220;9.884;2023-01-15T05:38:42;98970.09;;;6.01;89.49
16690;BME280;8458;52.220;9.884;2023-01-15T05:41:12;98961.88;;;6.06;89.61
16690;BME280;8458;52.220;9.884;2023-01-15T05:43:59;98960.50;;;6.03;89.22
16690;BME280;8458;52.220;9.884;2023-01-15T05:46:26;98955.81;;;6.09;89.70
16690;BME280;8458;52.220;9.884;2023-01-15T05:48:52;98951.94;;;6.10;89.25
16690;BME280;8458;52.220;9.884;2023-01-15T05:51:19;98936.00;;;6.12;89.94
16690;BME280;8458;52.220;9.884;2023-01-15T05:53:46;98958.00;;;6.07;89.56
16690;BME280;8458;52.220;9.884;2023-01-15T05:56:14;98955.81;;;6.09;89.50
16690;BME280;8458;52.220;9.884;2023-01-15T05:58:40;98957.44;;;6.10;89.72
16690;BME280;8458;52.220;9.884;2023-01-15T06:01:07;98960.75;;;6.12;90.54
16690;BME280;8458;52.220;9.884;2023-01-15T06:03:34;98970.09;;;6.11;90.53
16690;BME280;8458;52.220;9.884;2023-01-15T06:06:02;98970.94;;;6.12;89.22
16690;BME280;8458;52.220;9.884;2023-01-15T06:08:29;98960.75;;;6.12;89.54
16690;BME280;8458;52.220;9.884;2023-01-15T06:10:55;98962.97;;;6.15;89.41
16690;BME280;8458;52.220;9.884;2023-01-15T06:13:23;98973.13;;;6.09;89.51
16690;BME280;8458;52.220;9.884;2023-01-15T06:15:49;98981.66;;;6.13;89.43
16690;BME280;8458;52.220;9.884;2023-01-15T06:18:16;98977.25;;;6.17;89.22
16690;BME280;8458;52.220;9.884;2023-01-15T06:20:42;98965.97;;;6.19;88.42
16690;BME280;8458;52.220;9.884;2023-01-15T06:23:09;98959.09;;;6.11;88.30
16690;BME280;8458;52.220;9.884;2023-01-15T06:25:35;98964.06;;;6.14;88.60
16690;BME280;8458;52.220;9.884;2023-01-15T06:28:02;98985.50;;;6.17;88.34
16690;BME280;8458;52.220;9.884;2023-01-15T06:30:31;98978.91;;;6.13;88.14
16690;BME280;8458;52.220;9.884;2023-01-15T06:32:57;98991.56;;;6.14;87.71
16690;BME280;8458;52.220;9.884;2023-01-15T06:35:24;98989.34;;;6.16;87.68
16690;BME280;8458;52.220;9.884;2023-01-15T06:37:53;98991.00;;;6.17;86.80
16690;BME280;8458;52.220;9.884;2023-01-15T06:40:19;98980.81;;;6.18;87.16
16690;BME280;8458;52.220;9.884;2023-01-15T06:42:47;98986.59;;;6.16;87.48
16690;BME280;8458;52.220;9.884;2023-01-15T06:45:37;98982.22;;;6.15;87.33
16690;BME280;8458;52.220;9.884;2023-01-15T06:48:21;98989.94;;;6.18;87.21
16690;BME280;8458;52.220;9.884;2023-01-15T06:50:48;98993.50;;;6.19;87.17
16690;BME280;8458;52.220;9.884;2023-01-15T06:53:15;98985.50;;;6.17;87.48
16690;BME280;8458;52.220;9.884;2023-01-15T06:55:41;98975.06;;;6.24;87.19
16690;BME280;8458;52.220;9.884;2023-01-15T06:58:08;98980.56;;;6.24;86.11
16690;BME280;8458;52.220;9.884;2023-01-15T07:00:35;98973.41;;;6.23;86.26
16690;BME280;8458;52.220;9.884;2023-01-15T07:03:03;98988.25;;;6.27;86.14
16690;BME280;8458;52.220;9.884;2023-01-15T07:05:30;98988.53;;;6.26;85.37
16690;BME280;8458;52.220;9.884;2023-01-15T07:07:57;98986.88;;;6.25;85.66
16690;BME280;8458;52.220;9.884;2023-01-15T07:10:23;98973.66;;;6.27;85.35
16690;BME280;8458;52.220;9.884;2023-01-15T07:12:49;98971.19;;;6.31;85.91
16690;BME280;8458;52.220;9.884;2023-01-15T07:15:16;99000.63;;;6.25;85.61
16690;BME280;8458;52.220;9.884;2023-01-15T07:17:44;98980.84;;;6.23;85.99
16690;BME280;8458;52.220;9.884;2023-01-15T07:20:11;98986.31;;;6.28;85.51
16690;BME280;8458;52.220;9.884;2023-01-15T07:22:38;98987.13;;;6.28;84.91
16690;BME280;8458;52.220;9.884;2023-01-15T07:25:05;98980.56;;;6.24;84.88
16690;BME280;8458;52.220;9.884;2023-01-15T07:27:32;98978.91;;;6.23;84.83
16690;BME280;8458;52.220;9.884;2023-01-15T07:29:58;98993.47;;;6.24;85.43
16690;BME280;8458;52.220;9.884;2023-01-15T07:32:25;98989.38;;;6.21;85.51
16690;BME280;8458;52.220;9.884;2023-01-15T07:34:53;98985.50;;;6.22;85.40
16690;BME280;8458;52.220;9.884;2023-01-15T07:37:19;99005.88;;;6.21;85.26
16690;BME280;8458;52.220;9.884;2023-01-15T07:39:46;99000.91;;;6.23;85.16
16690;BME280;8458;52.220;9.884;2023-01-15T07:42:12;98994.84;;;6.26;84.89
16690;BME280;8458;52.220;9.884;2023-01-15T07:44:56;99000.63;;;6.25;85.13
16690;BME280;8458;52.220;9.884;2023-01-15T07:47:40;98994.88;;;6.21;85.44
16690;BME280;8458;52.220;9.884;2023-01-15T07:50:25;98993.75;;;6.22;84.12
16690;BME280;8458;52.220;9.884;2023-01-15T07:52:52;98993.75;;;6.22;84.06
16690;BME280;8458;52.220;9.884;2023-01-15T07:55:19;99010.53;;;6.21;83.80
16690;BME280;8458;52.220;9.884;2023-01-15T07:57:46;99001.75;;;6.19;83.52
16690;BME280;8458;52.220;9.884;2023-01-15T08:00:15;99000.66;;;6.20;83.84
16690;BME280;8458;52.220;9.884;2023-01-15T08:02:45;99004.75;;;6.22;83.39
16690;BME280;8458;52.220;9.884;2023-01-15T08:05:14;99000.63;;;6.30;83.18
16690;BME280;8458;52.220;9.884;2023-01-15T08:07:43;99003.09;;;6.32;82.76
16690;BME280;8458;52.220;9.884;2023-01-15T08:10:12;99007.25;;;6.29;82.73
16690;BME280;8458;52.220;9.884;2023-01-15T08:12:39;99003.66;;;6.28;82.63
16690;BME280;8458;52.220;9.884;2023-01-15T08:15:23;99014.41;;;6.25;82.55
16690;BME280;8458;52.220;9.884;2023-01-15T08:17:50;99015.50;;;6.29;83.27
16690;BME280;8458;52.220;9.884;2023-01-15T08:20:18;99012.47;;;6.31;84.01
16690;BME280;8458;52.220;9.884;2023-01-15T08:22:47;99007.50;;;6.22;83.85
16690;BME280;8458;52.220;9.884;2023-01-15T08:25:15;99010.81;;;6.30;83.31
16690;BME280;8458;52.220;9.884;2023-01-15T08:27:42;99001.44;;;6.25;82.76
16690;BME280;8458;52.220;9.884;2023-01-15T08:30:11;99020.75;;;6.31;82.73
16690;BME280;8458;52.220;9.884;2023-01-15T08:32:38;99016.59;;;6.33;82.67
16690;BME280;8458;52.220;9.884;2023-01-15T08:35:06;99005.28;;;6.35;82.31
16690;BME280;8458;52.220;9.884;2023-01-15T08:37:33;99008.63;;;6.37;82.46
16690;BME280;8458;52.220;9.884;2023-01-15T08:40:00;99011.38;;;6.37;83.02
16690;BME280;8458;52.220;9.884;2023-01-15T08:42:27;99008.63;;;6.37;83.42
16690;BME280;8458;52.220;9.884;2023-01-15T08:44:53;99013.56;;;6.40;83.71
16690;BME280;8458;52.220;9.884;2023-01-15T08:47:20;99008.06;;;6.35;84.20
16690;BME280;8458;52.220;9.884;2023-01-15T08:49:46;99013.56;;;6.40;83.37
16690;BME280;8458;52.220;9.884;2023-01-15T08:52:13;99013.28;;;6.31;83.55
16690;BME280;8458;52.220;9.884;2023-01-15T08:54:39;99022.38;;;6.32;83.36
16690;BME280;8458;52.220;9.884;2023-01-15T08:57:07;99011.94;;;6.23;83.24
16690;BME280;8458;52.220;9.884;2023-01-15T08:59:36;99015.22;;;6.20;83.17
16690;BME280;8458;52.220;9.884;2023-01-15T09:02:02;99012.78;;;6.14;83.71
16690;BME280;8458;52.220;9.884;2023-01-15T09:04:29;99021.31;;;6.12;83.60
16690;BME280;8458;52.220;9.884;2023-01-15T09:06:55;99017.44;;;6.13;83.94
16690;BME280;8458;52.220;9.884;2023-01-15T09:09:21;99013.31;;;6.10;84.15
16690;BME280;8458;52.220;9.884;2023-01-15T09:11:48;99013.59;;;6.09;84.46
16690;BME280;8458;52.220;9.884;2023-01-15T09:14:16;99008.91;;;6.15;84.12
16690;BME280;8458;52.220;9.884;2023-01-15T09:16:42;99009.72;;;6.10;84.20
16690;BME280;8458;52.220;9.884;2023-01-15T09:19:10;99020.75;;;6.15;83.63
16690;BME280;8458;52.220;9.884;2023-01-15T09:21:37;99018.00;;;6.15;83.87
16690;BME280;8458;52.220;9.884;2023-01-15T09:24:04;99030.09;;;6.14;83.31
16690;BME280;8458;52.220;9.884;2023-01-15T09:26:32;99037.81;;;6.12;83.10
16690;BME280;8458;52.220;9.884;2023-01-15T09:28:59;99032.31;;;6.12;82.89
16690;BME280;8458;52.220;9.884;2023-01-15T09:31:28;99044.41;;;6.16;82.18
16690;BME280;8458;52.220;9.884;2023-01-15T09:33:54;99026.53;;;6.19;82.12
16690;BME280;8458;52.220;9.884;2023-01-15T09:36:23;99035.03;;;6.22;82.24
16690;BME280;8458;52.220;9.884;2023-01-15T09:38:50;99036.16;;;6.21;82.08
16690;BME280;8458;52.220;9.884;2023-01-15T09:41:17;99031.19;;;6.23;82.83
16690;BME280;8458;52.220;9.884;2023-01-15T09:44:16;99031.47;;;6.27;81.41
16690;BME280;8458;52.220;9.884;2023-01-15T09:46:56;99037.25;;;6.25;79.85
16690;BME280;8458;52.220;9.884;2023-01-15T09:49:33;99028.16;;;6.30;79.80
16690;BME280;8458;52.220;9.884;2023-01-15T09:52:08;99032.28;;;6.33;78.21
16690;BME280;8458;52.220;9.884;2023-01-15T09:54:44;99029.53;;;6.33;76.68
16690;BME280;8458;52.220;9.884;2023-01-15T09:57:14;99034.75;;;6.24;75.73
16690;BME280;8458;52.220;9.884;2023-01-15T09:59:43;99044.13;;;6.13;75.03
16690;BME280;8458;52.220;9.884;2023-01-15T10:02:19;99039.41;;;5.82;78.92
16690;BME280;8458;52.220;9.884;2023-01-15T10:04:50;99050.09;;;5.68;81.26
16690;BME280;8458;52.220;9.884;2023-01-15T10:07:24;99038.78;;;5.54;82.88
16690;BME280;8458;52.220;9.884;2023-01-15T10:09:57;99030.56;;;5.49;83.02
16690;BME280;8458;52.220;9.884;2023-01-15T10:12:27;99030.53;;;5.44;83.73
16690;BME280;8458;52.220;9.884;2023-01-15T10:15:21;99022.31;;;5.44;84.80
16690;BME280;8458;52.220;9.884;2023-01-15T10:17:51;99029.44;;;5.40;85.86
16690;BME280;8458;52.220;9.884;2023-01-15T10:20:39;99034.63;;;5.31;87.31
16690;BME280;8458;52.220;9.884;2023-01-15T10:23:20;99039.56;;;5.24;88.18
16690;BME280;8458;52.220;9.884;2023-01-15T10:25:56;99039.28;;;5.20;88.39
16690;BME280;8458;52.220;9.884;2023-01-15T10:28:27;99048.59;;;5.19;89.37
16690;BME280;8458;52.220;9.884;2023-01-15T10:30:55;99040.63;;;5.23;89.77
16690;BME280;8458;52.220;9.884;2023-01-15T10:33:48;99046.72;;;5.25;89.74
16690;BME280;8458;52.220;9.884;2023-01-15T10:36:21;99041.50;;;5.29;89.05
16690;BME280;8458;52.220;9.884;2023-01-15T10:38:55;99052.22;;;5.35;89.33
16690;BME280;8458;52.220;9.884;2023-01-15T10:41:33;99061.31;;;5.41;89.13
16690;BME280;8458;52.220;9.884;2023-01-15T10:44:08;99060.25;;;5.47;88.48
16690;BME280;8458;52.220;9.884;2023-01-15T10:46:38;99052.81;;;5.53;87.25
16690;BME280;8458;52.220;9.884;2023-01-15T10:49:12;99054.22;;;5.61;85.37
16690;BME280;8458;52.220;9.884;2023-01-15T10:51:42;99041.84;;;5.63;85.26
16690;BME280;8458;52.220;9.884;2023-01-15T10:54:15;99051.50;;;5.71;84.83
16690;BME280;8458;52.220;9.884;2023-01-15T10:56:46;99040.50;;;5.66;84.68
16690;BME280;8458;52.220;9.884;2023-01-15T10:59:18;99038.84;;;5.65;84.16
16690;BME280;8458;52.220;9.884;2023-01-15T11:01:47;99021.50;;;5.64;83.90
16690;BME280;8458;52.220;9.884;2023-01-15T11:04:16;99038.56;;;5.71;83.87
16690;BME280;8458;52.220;9.884;2023-01-15T11:06:42;99028.94;;;5.79;83.46
16690;BME280;8458;52.220;9.884;2023-01-15T11:09:18;99031.16;;;5.87;83.51
16690;BME280;8458;52.220;9.884;2023-01-15T11:11:48;99020.19;;;5.98;82.71
16690;BME280;8458;52.220;9.884;2023-01-15T11:14:34;99024.88;;;6.07;82.01
16690;BME280;8458;52.220;9.884;2023-01-15T11:17:18;99014.13;;;6.16;81.03
16690;BME280;8458;52.220;9.884;2023-01-15T11:20:13;99009.72;;;6.25;79.92
16690;BME280;8458;52.220;9.884;2023-01-15T11:22:43;99011.34;;;6.32;79.37
16690;BME280;8458;52.220;9.884;2023-01-15T11:25:09;99012.47;;;6.36;80.04
16690;BME280;8458;52.220;9.884;2023-01-15T11:27:36;99020.72;;;6.36;79.58
16690;BME280;8458;52.220;9.884;2023-01-15T11:30:05;99028.16;;;6.40;79.38
16690;BME280;8458;52.220;9.884;2023-01-15T11:32:34;99006.13;;;6.40;78.55
16690;BME280;8458;52.220;9.884;2023-01-15T11:35:03;99011.88;;;6.44;78.45
16690;BME280;8458;52.220;9.884;2023-01-15T11:37:40;99004.44;;;6.50;77.64
16690;BME280;8458;52.220;9.884;2023-01-15T11:40:15;99015.72;;;6.53;76.62
16690;BME280;8458;52.220;9.884;2023-01-15T11:42:44;99003.59;;;6.59;77.08
16690;BME280;8458;52.220;9.884;2023-01-15T11:45:28;99021.78;;;6.60;76.16
16690;BME280;8458;52.220;9.884;2023-01-15T11:48:15;99017.91;;;6.67;76.34
16690;BME280;8458;52.220;9.884;2023-01-15T11:51:03;99023.41;;;6.72;76.65
16690;BME280;8458;52.220;9.884;2023-01-15T11:53:37;99021.72;;;6.71;74.01
16690;BME280;8458;52.220;9.884;2023-01-15T11:56:12;99021.72;;;6.71;73.36
16690;BME280;8458;52.220;9.884;2023-01-15T11:58:44;99021.72;;;6.71;74.09
16690;BME280;8458;52.220;9.884;2023-01-15T12:01:12;99024.75;;;6.79;72.36
16690;BME280;8458;52.220;9.884;2023-01-15T12:03:41;99019.50;;;6.88;71.41
16690;BME280;8458;52.220;9.884;2023-01-15T12:06:09;99020.03;;;6.90;70.13
16690;BME280;8458;52.220;9.884;2023-01-15T12:08:49;99018.94;;;6.91;69.37
16690;BME280;8458;52.220;9.884;2023-01-15T12:11:46;99019.19;;;6.95;70.63
16690;BME280;8458;52.220;9.884;2023-01-15T12:14:34;99015.63;;;6.94;69.46
16690;BME280;8458;52.220;9.884;2023-01-15T12:17:14;99007.91;;;6.86;69.16
16690;BME280;8458;52.220;9.884;2023-01-15T12:19:52;99021.97;;;6.90;69.16
16690;BME280;8458;52.220;9.884;2023-01-15T12:22:33;99039.31;;;6.90;69.35
16690;BME280;8458;52.220;9.884;2023-01-15T12:25:19;99020.59;;;6.87;70.13
16690;BME280;8458;52.220;9.884;2023-01-15T12:27:54;99021.16;;;6.84;69.70
16690;BME280;8458;52.220;9.884;2023-01-15T12:30:27;99039.63;;;6.78;68.53
16690;BME280;8458;52.220;9.884;2023-01-15T12:33:03;99014.53;;;6.80;69.00
16690;BME280;8458;52.220;9.884;2023-01-15T12:35:32;99025.56;;;6.80;68.94
16690;BME280;8458;52.220;9.884;2023-01-15T12:38:07;99019.50;;;6.83;68.73
16690;BME280;8458;52.220;9.884;2023-01-15T12:40:42;99013.16;;;6.82;69.72
16690;BME280;8458;52.220;9.884;2023-01-15T12:43:14;99006.28;;;6.85;67.93
16690;BME280;8458;52.220;9.884;2023-01-15T12:45:59;99021.41;;;6.88;67.42
16690;BME280;8458;52.220;9.884;2023-01-15T12:48:31;99025.56;;;6.85;67.37
16690;BME280;8458;52.220;9.884;2023-01-15T12:51:02;99014.84;;;6.84;68.32
16690;BME280;8458;52.220;9.884;2023-01-15T12:53:36;99016.75;;;6.83;68.29
16690;BME280;8458;52.220;9.884;2023-01-15T12:56:16;99012.88;;;6.84;69.08
16690;BME280;8458;52.220;9.884;2023-01-15T12:58:48;99000.78;;;6.85;70.03
16690;BME280;8458;52.220;9.884;2023-01-15T13:01:21;99011.22;;;6.88;68.05
16690;BME280;8458;52.220;9.884;2023-01-15T13:03:56;98986.41;;;6.93;67.94
16690;BME280;8458;52.220;9.884;2023-01-15T13:06:25;98980.31;;;6.96;67.07
16690;BME280;8458;52.220;9.884;2023-01-15T13:08:58;99001.81;;;6.99;66.80
16690;BME280;8458;52.220;9.884;2023-01-15T13:11:27;98979.47;;;7.01;67.25
16690;BME280;8458;52.220;9.884;2023-01-15T13:13:53;98984.72;;;7.03;66.62
16690;BME280;8458;52.220;9.884;2023-01-15T13:16:35;98975.34;;;7.04;66.06
16690;BME280;8458;52.220;9.884;2023-01-15T13:19:13;98978.63;;;7.06;67.64
16690;BME280;8458;52.220;9.884;2023-01-15T13:21:44;98993.75;;;7.13;68.42
16690;BME280;8458;52.220;9.884;2023-01-15T13:24:24;99023.75;;;7.20;68.48
16690;BME280;8458;52.220;9.884;2023-01-15T13:27:07;99011.66;;;7.16;66.92
16690;BME280;8458;52.220;9.884;2023-01-15T13:29:43;99013.88;;;7.14;67.09
16690;BME280;8458;52.220;9.884;2023-01-15T13:32:17;99012.81;;;7.10;67.82
16690;BME280;8458;52.220;9.884;2023-01-15T13:34:46;99020.50;;;7.08;67.81
16690;BME280;8458;52.220;9.884;2023-01-15T13:37:19;99023.53;;;7.06;67.21
16690;BME280;8458;52.220;9.884;2023-01-15T13:39:48;99010.03;;;7.05;68.08